Terminal Aerodrome Forecast
Issued by NWS Sioux Falls, SD

Home | Current Version | Previous Version | Text Only | Print | Product List | Glossary On
Versions: 1 2 3 4 5 6 7 8 9 10 11 12 13 14 15 16 17
509
FTUS43 KFSD 211134
TAFHON
TAF
KHON 211134Z 2112/2212 31007KT P6SM OVC006
      TEMPO 2112/2113 SCT006 OVC035
     FM211500 29005KT P6SM OVC004
     FM212000 28005KT P6SM OVC008
     FM220600 30006KT P6SM BKN010=

USA.gov is the U.S. government's official web portal to all federal, state and local government web resources and services.